Time;durP1;ratioP1;P1;durP2;ratioP2;P2;SDS_P1;SDS_P2;PMS_P1;PMS_P2;Temp;Humidity;BMP_temperature;BMP_pressure;BME280_temperature;BME280_humidity;BME280_pressure;Samples;Min_cycle;Max_cycle;Signal;HPM_P1;HPM_P2
2023/03/28 00:01:31;;;;;;;;;5.67;4.00;;;;;8.64;43.79;102264.75;5058010;28;45642;-75
2023/03/28 00:03:56;;;;;;;;;5.33;4.67;;;;;8.61;44.08;102276.41;5055903;28;45226;-77
2023/03/28 00:06:25;;;;;;;;;4.33;4.00;;;;;8.72;44.63;102281.88;5052516;28;47855;-75
2023/03/28 00:08:50;;;;;;;;;6.67;6.33;;;;;8.26;44.23;102208.75;5058714;28;45498;-75
2023/03/28 00:11:18;;;;;;;;;6.00;6.00;;;;;7.96;44.74;102151.38;5035918;28;46205;-75
2023/03/28 00:13:52;;;;;;;;;6.67;6.67;;;;;8.73;44.74;102282.72;5055453;28;45618;-75
2023/03/28 00:16:17;;;;;;;;;7.33;5.67;;;;;8.78;44.69;102304.50;5057006;28;45317;-76
2023/03/28 00:18:43;;;;;;;;;7.33;7.00;;;;;8.42;44.49;102251.97;5053289;28;45254;-74
2023/03/28 00:21:18;;;;;;;;;6.67;6.00;;;;;8.65;44.81;102296.47;5051371;28;45574;-75
2023/03/28 00:23:44;;;;;;;;;7.00;6.67;;;;;7.37;45.26;102088.75;5032490;28;45608;-73
2023/03/28 00:26:11;;;;;;;;;7.33;6.33;;;;;8.21;45.38;102231.09;5037060;28;45622;-77
2023/03/28 00:28:38;;;;;;;;;7.33;6.00;;;;;8.47;45.64;102302.88;5042193;28;45208;-74
2023/03/28 00:31:05;;;;;;;;;10.00;7.00;;;;;8.09;45.11;102230.94;5028490;28;49154;-76
2023/03/28 00:33:31;;;;;;;;;7.67;7.67;;;;;8.29;45.73;102261.56;5037642;28;45324;-77
2023/03/28 00:35:56;;;;;;;;;7.00;7.00;;;;;8.46;46.03;102283.47;5037526;28;45258;-76
2023/03/28 00:38:22;;;;;;;;;7.67;5.67;;;;;8.34;45.60;102270.94;5037933;28;45508;-75
2023/03/28 00:40:47;;;;;;;;;6.33;6.33;;;;;8.29;45.49;102258.91;5032011;28;47359;-75
2023/03/28 00:43:13;;;;;;;;;7.33;6.00;;;;;8.42;45.79;102273.16;5019531;28;45299;-73
2023/03/28 00:45:40;;;;;;;;;6.67;6.67;;;;;7.54;45.52;102129.16;5050771;28;45491;-75
2023/03/28 00:48:12;;;;;;;;;6.00;6.00;;;;;8.35;45.48;102275.31;5054018;28;45483;-74
2023/03/28 00:50:41;;;;;;;;;8.67;7.33;;;;;8.38;45.64;102284.88;5056173;28;45721;-74
2023/03/28 00:53:14;;;;;;;;;7.00;5.33;;;;;8.23;45.68;102253.03;5040473;28;45495;-73
2023/03/28 00:55:56;;;;;;;;;4.00;4.00;;;;;7.36;45.49;102113.50;5056502;28;45285;-75
2023/03/28 00:58:26;;;;;;;;;9.33;6.33;;;;;8.35;45.42;102269.16;5057667;28;45337;-75
2023/03/28 01:00:53;;;;;;;;;10.33;7.00;;;;;8.38;44.96;102280.41;5056513;28;45658;-75
2023/03/28 01:03:21;;;;;;;;;6.00;5.67;;;;;8.45;45.26;102281.78;5037028;28;45195;-74
2023/03/28 01:05:47;;;;;;;;;6.00;6.00;;;;;8.50;45.23;102279.69;5053336;28;45329;-74
2023/03/28 01:08:20;;;;;;;;;5.00;5.00;;;;;8.56;45.61;102294.34;5056462;28;45579;-75
2023/03/28 01:10:46;;;;;;;;;7.33;6.00;;;;;7.63;44.89;102128.63;5056156;28;45569;-73
2023/03/28 01:13:16;;;;;;;;;7.00;3.00;;;;;8.53;45.31;102294.56;5036348;28;45413;-75
2023/03/28 01:15:43;;;;;;;;;8.00;7.33;;;;;8.56;45.43;102281.09;5055308;28;45282;-74
2023/03/28 01:18:10;;;;;;;;;6.33;6.00;;;;;7.98;44.95;102175.97;5035362;28;45448;-73
2023/03/28 01:20:50;;;;;;;;;6.00;6.00;;;;;8.68;44.71;102280.38;5048039;28;47261;-73
2023/03/28 01:23:43;;;;;;;;;6.67;6.67;;;;;8.73;44.63;102272.97;5055671;28;45485;-72
2023/03/28 01:26:38;;;;;;;;;8.00;7.00;;;;;8.65;44.95;102277.91;5053000;28;45597;-74
2023/03/28 01:29:59;;;;;;;;;7.00;6.00;;;;;8.52;44.70;102255.75;5056880;28;45957;-74
2023/03/28 01:32:43;;;;;;;;;5.00;5.00;;;;;8.63;44.71;102266.56;5016956;28;46370;-75
2023/03/28 01:35:15;;;;;;;;;4.67;4.00;;;;;8.62;44.31;102267.50;5028386;28;45594;-77
2023/03/28 01:37:52;;;;;;;;;6.67;5.00;;;;;8.53;44.47;102260.94;5057045;28;45414;-72
2023/03/28 01:40:35;;;;;;;;;5.67;5.00;;;;;8.35;44.08;102227.59;5055425;28;45232;-74
2023/03/28 01:43:25;;;;;;;;;4.67;4.67;;;;;7.59;43.87;102084.75;5056104;28;46717;-73
2023/03/28 01:46:22;;;;;;;;;9.00;6.00;;;;;8.61;44.46;102260.50;5034251;28;45415;-74
2023/03/28 01:49:16;;;;;;;;;6.67;5.00;;;;;8.65;43.96;102245.25;5034328;28;45328;-74
2023/03/28 01:52:16;;;;;;;;;6.00;5.00;;;;;6.01;43.84;101804.25;5023970;28;45439;-74
2023/03/28 01:55:00;;;;;;;;;4.00;3.00;;;;;8.69;43.82;102242.31;5047811;28;46322;-74
2023/03/28 01:57:46;;;;;;;;;7.00;5.00;;;;;8.70;43.88;102235.19;5059526;28;45174;-73
2023/03/28 02:00:38;;;;;;;;;5.67;4.00;;;;;8.53;43.70;102225.63;4990049;28;45316;-74
2023/03/28 02:03:13;;;;;;;;;7.00;4.33;;;;;8.40;43.92;102225.53;5043989;28;45513;-74
2023/03/28 02:05:42;;;;;;;;;3.67;3.67;;;;;8.27;44.08;102207.81;5028830;28;48304;-75
2023/03/28 02:08:12;;;;;;;;;4.33;4.33;;;;;8.06;44.84;102186.97;5043202;28;46282;-75
2023/03/28 02:10:41;;;;;;;;;3.33;3.33;;;;;8.04;44.65;102191.50;5046746;28;45634;-74
2023/03/28 02:13:44;;;;;;;;;3.00;3.00;;;;;7.89;45.25;102187.97;5042069;28;45559;-74
2023/03/28 02:16:13;;;;;;;;;3.00;3.00;;;;;7.87;45.10;102207.53;5040947;28;47789;-75
2023/03/28 02:18:46;;;;;;;;;6.00;4.67;;;;;7.85;45.48;102212.94;5057082;28;45507;-75
2023/03/28 02:21:24;;;;;;;;;4.00;4.00;;;;;7.70;45.77;102187.34;5047799;28;45533;-75
2023/03/28 02:23:52;;;;;;;;;5.00;5.00;;;;;7.88;45.60;102203.94;5051391;28;45306;-75
2023/03/28 02:26:20;;;;;;;;;5.67;4.00;;;;;7.78;45.89;102193.03;5054366;28;45270;-75
2023/03/28 02:28:51;;;;;;;;;8.33;7.00;;;;;7.83;45.40;102203.38;5022229;28;45728;-76
2023/03/28 02:31:17;;;;;;;;;3.00;3.00;;;;;7.83;45.88;102213.97;5044363;28;45595;-76
2023/03/28 02:33:46;;;;;;;;;5.00;4.00;;;;;7.80;45.69;102196.44;5054548;28;46118;-74
2023/03/28 02:36:28;;;;;;;;;5.33;4.67;;;;;7.78;46.28;102197.47;5041193;28;46084;-75
2023/03/28 02:39:16;;;;;;;;;5.33;5.33;;;;;6.78;45.83;102030.47;5043813;28;46274;-73
2023/03/28 02:41:47;;;;;;;;;3.33;3.00;;;;;7.77;45.75;102186.03;5059817;28;45207;-75
2023/03/28 02:44:43;;;;;;;;;5.67;4.00;;;;;7.80;46.21;102182.34;5041339;28;45542;-75
2023/03/28 02:47:35;;;;;;;;;8.33;5.00;;;;;7.70;45.71;102178.56;5035311;28;48028;-74
2023/03/28 02:50:42;;;;;;;;;5.00;4.00;;;;;7.65;46.14;102172.69;5031264;28;45261;-75
2023/03/28 02:53:13;;;;;;;;;4.00;4.00;;;;;7.61;46.19;102172.03;5011373;28;45325;-76
2023/03/28 02:55:57;;;;;;;;;6.67;4.00;;;;;7.51;46.59;102160.25;5019536;28;45515;-76
2023/03/28 02:58:33;;;;;;;;;4.00;3.33;;;;;7.47;46.30;102153.44;5023142;28;46423;-75
2023/03/28 03:01:02;;;;;;;;;4.00;4.00;;;;;7.58;46.57;102172.19;5030711;28;45601;-72
2023/03/28 03:03:28;;;;;;;;;5.00;5.00;;;;;7.46;46.17;102152.59;5028020;28;45367;-76
2023/03/28 03:05:53;;;;;;;;;5.00;5.00;;;;;6.64;46.80;102006.66;5038260;28;45276;-73
2023/03/28 03:08:18;;;;;;;;;4.00;4.00;;;;;7.59;46.70;102163.28;5038204;28;47043;-76
2023/03/28 03:10:44;;;;;;;;;5.00;4.00;;;;;7.61;46.59;102151.69;5037444;28;45220;-75
2023/03/28 03:13:09;;;;;;;;;8.33;5.00;;;;;7.61;46.77;102162.28;5037698;28;46164;-75
2023/03/28 03:15:34;;;;;;;;;5.00;4.00;;;;;7.62;46.52;102148.09;5032624;28;45622;-75
2023/03/28 03:18:00;;;;;;;;;5.00;4.00;;;;;7.64;46.86;102155.97;5028519;28;45470;-74
2023/03/28 03:20:32;;;;;;;;;8.33;5.00;;;;;7.66;46.59;102150.56;5020760;28;45317;-75
2023/03/28 03:22:58;;;;;;;;;4.67;4.67;;;;;6.81;47.02;102003.91;5036877;28;45314;-74
2023/03/28 03:25:23;;;;;;;;;6.00;6.00;;;;;7.64;46.74;102129.50;5049819;28;45456;-76
2023/03/28 03:27:48;;;;;;;;;6.33;5.00;;;;;7.36;47.24;102087.06;5036005;28;47678;-76
2023/03/28 03:30:14;;;;;;;;;3.00;3.00;;;;;7.73;46.46;102133.38;5037884;28;45423;-76
2023/03/28 03:32:40;;;;;;;;;5.00;5.00;;;;;7.70;46.80;102115.03;5037433;28;45205;-75
2023/03/28 03:35:05;;;;;;;;;6.00;5.00;;;;;6.89;47.24;101971.72;5037038;28;45514;-75
2023/03/28 03:37:31;;;;;;;;;5.00;5.00;;;;;7.63;47.37;102096.88;5027800;28;46244;-74
2023/03/28 03:39:56;;;;;;;;;4.00;4.00;;;;;7.44;47.57;102084.84;5048823;28;45349;-75
2023/03/28 03:42:21;;;;;;;;;8.00;4.33;;;;;7.30;47.39;102040.66;5020978;28;45263;-73
2023/03/28 03:44:47;;;;;;;;;4.33;4.00;;;;;7.86;47.01;102113.16;5039848;28;45607;-74
2023/03/28 03:47:12;;;;;;;;;6.00;4.00;;;;;7.84;46.67;102092.06;5061927;28;45546;-76
2023/03/28 03:49:38;;;;;;;;;3.33;3.33;;;;;7.80;47.19;102081.75;5039972;28;45963;-74
2023/03/28 03:52:03;;;;;;;;;4.67;4.33;;;;;7.78;47.24;102083.63;5037363;28;45301;-75
2023/03/28 03:54:29;;;;;;;;;6.67;5.00;;;;;7.87;46.95;102126.31;5057349;28;45365;-76
2023/03/28 03:56:54;;;;;;;;;4.00;3.67;;;;;7.59;47.18;102084.75;5056258;28;48123;-74
2023/03/28 03:59:20;;;;;;;;;4.33;4.33;;;;;7.41;47.55;102075.28;5048307;28;45294;-75
2023/03/28 04:01:45;;;;;;;;;5.67;4.67;;;;;6.66;48.06;101965.13;5052865;28;45534;-76
2023/03/28 04:04:11;;;;;;;;;4.00;4.00;;;;;7.41;48.13;102111.44;5056743;28;45444;-75
2023/03/28 04:06:39;;;;;;;;;6.33;6.00;;;;;7.18;48.42;102078.41;5055695;28;46428;-76
2023/03/28 04:09:06;;;;;;;;;4.00;4.00;;;;;7.20;48.23;102076.53;5038554;28;46277;-73
2023/03/28 04:11:33;;;;;;;;;7.33;6.00;;;;;7.31;48.89;102116.44;5035244;28;45230;-75
2023/03/28 04:13:58;;;;;;;;;4.33;4.33;;;;;6.61;48.96;102006.84;5047113;28;45367;-75
2023/03/28 04:16:23;;;;;;;;;6.33;5.33;;;;;7.19;48.80;102102.13;5051181;28;46505;-74
2023/03/28 04:18:51;;;;;;;;;4.00;4.00;;;;;6.60;49.45;102007.75;5055349;28;46218;-75
2023/03/28 04:21:26;;;;;;;;;9.33;7.00;;;;;7.05;49.90;102104.72;5052846;28;45508;-75
2023/03/28 04:23:52;;;;;;;;;5.67;5.67;;;;;6.90;49.87;102093.22;5050244;28;45502;-75
2023/03/28 04:26:19;;;;;;;;;9.00;6.00;;;;;6.96;49.80;102103.44;5055259;28;45654;-79
2023/03/28 04:28:46;;;;;;;;;7.00;5.33;;;;;6.96;49.63;102116.66;5054874;28;45512;-75
2023/03/28 04:31:12;;;;;;;;;10.00;7.00;;;;;6.37;50.35;102016.97;5057009;28;45207;-74
2023/03/28 04:33:38;;;;;;;;;11.00;7.33;;;;;6.91;50.27;102097.56;5056913;28;45210;-74
2023/03/28 04:36:06;;;;;;;;;6.00;6.00;;;;;6.86;50.23;102089.06;5023470;28;47682;-74
2023/03/28 04:38:36;;;;;;;;;11.00;7.33;;;;;6.52;50.40;102026.69;5043125;28;45510;-74
2023/03/28 04:41:04;;;;;;;;;6.00;6.00;;;;;6.87;50.58;102090.75;5035797;28;45422;-74
2023/03/28 04:43:30;;;;;;;;;6.67;5.33;;;;;6.73;50.14;102066.91;5020022;28;45457;-74
2023/03/28 04:45:57;;;;;;;;;7.33;7.00;;;;;6.13;50.27;101966.38;5033587;28;47955;-76
2023/03/28 04:48:24;;;;;;;;;17.33;10.67;;;;;6.28;50.00;101991.94;5041575;28;46630;-73
2023/03/28 04:50:50;;;;;;;;;13.33;10.33;;;;;7.08;50.10;102112.47;5056046;28;45333;-75
2023/03/28 04:53:16;;;;;;;;;13.33;12.00;;;;;7.08;50.12;102103.69;5048632;28;45198;-76
2023/03/28 04:55:47;;;;;;;;;12.67;12.00;;;;;6.37;50.19;101980.00;5057376;28;46318;-74
2023/03/28 04:58:14;;;;;;;;;16.00;14.00;;;;;7.01;50.73;102095.28;5057376;28;45407;-76
2023/03/28 05:00:41;;;;;;;;;15.67;12.67;;;;;6.39;50.02;101968.41;5057286;28;45537;-74
2023/03/28 05:03:12;;;;;;;;;16.67;14.33;;;;;7.01;49.93;102072.31;5056823;28;45490;-77
2023/03/28 05:05:37;;;;;;;;;11.33;11.33;;;;;7.19;49.86;102088.88;5045482;28;46118;-73
2023/03/28 05:08:02;;;;;;;;;6.00;6.00;;;;;7.32;49.73;102110.19;5048629;28;45586;-72
2023/03/28 05:10:28;;;;;;;;;9.67;9.67;;;;;7.39;50.20;102115.97;5053028;28;45456;-76
2023/03/28 05:12:53;;;;;;;;;11.67;10.67;;;;;7.31;49.81;102098.78;5045297;28;45481;-72
2023/03/28 05:15:19;;;;;;;;;10.33;7.33;;;;;6.97;49.95;102044.34;5056490;28;45906;-74
2023/03/28 05:17:44;;;;;;;;;9.33;6.33;;;;;7.39;49.96;102113.31;5055764;28;45468;-78
2023/03/28 05:20:10;;;;;;;;;6.33;6.33;;;;;7.41;50.36;102120.25;5040968;28;45357;-74
2023/03/28 05:22:37;;;;;;;;;7.67;7.67;;;;;7.43;50.16;102118.38;5051908;28;45518;-75
2023/03/28 05:25:03;;;;;;;;;9.33;7.00;;;;;7.44;50.39;102122.72;5060510;28;46859;-74
2023/03/28 05:27:29;;;;;;;;;11.00;7.00;;;;;6.99;50.30;102058.31;5038719;28;45310;-75
2023/03/28 05:29:55;;;;;;;;;10.67;8.00;;;;;7.37;49.73;102105.50;5053478;28;45494;-74
2023/03/28 05:32:20;;;;;;;;;11.33;6.33;;;;;7.40;50.29;102099.16;5039010;28;45484;-75
2023/03/28 05:34:46;;;;;;;;;9.33;9.33;;;;;6.95;50.08;102011.84;5037363;28;47641;-73
2023/03/28 05:37:12;;;;;;;;;9.67;9.67;;;;;7.44;50.18;102095.41;5057633;28;45570;-75
2023/03/28 05:39:37;;;;;;;;;13.00;11.00;;;;;7.53;49.91;102116.88;5022381;28;45424;-75
2023/03/28 05:42:03;;;;;;;;;14.00;13.67;;;;;7.54;50.34;102115.09;5019034;28;45393;-77
2023/03/28 05:44:28;;;;;;;;;16.00;14.67;;;;;7.50;49.86;102106.47;5050653;28;46982;-76
2023/03/28 05:46:53;;;;;;;;;23.33;21.67;;;;;7.26;50.17;102065.59;5032202;28;45530;-76
2023/03/28 05:49:19;;;;;;;;;11.33;10.33;;;;;7.60;50.13;102123.50;5038574;28;45682;-77
2023/03/28 05:51:44;;;;;;;;;13.00;10.67;;;;;7.13;50.44;102032.88;5037263;28;45524;-76
2023/03/28 05:54:10;;;;;;;;;8.33;8.33;;;;;7.40;50.25;102078.84;5052883;28;45766;-74
2023/03/28 05:56:36;;;;;;;;;10.67;9.00;;;;;7.47;50.23;102097.88;5046286;28;45496;-75
2023/03/28 05:59:02;;;;;;;;;12.00;11.00;;;;;6.96;49.86;102010.91;5033672;28;45506;-72
2023/03/28 06:01:28;;;;;;;;;8.00;7.33;;;;;7.42;49.75;102100.81;5028637;28;45441;-78
2023/03/28 06:03:54;;;;;;;;;8.67;7.00;;;;;7.62;50.61;102119.00;5033968;28;48192;-76
2023/03/28 06:06:20;;;;;;;;;17.00;12.67;;;;;7.35;50.86;102090.66;5049041;28;45578;-78
2023/03/28 06:08:45;;;;;;;;;11.67;10.33;;;;;7.53;50.38;102123.97;5035556;28;45415;-74
2023/03/28 06:11:11;;;;;;;;;11.67;8.67;;;;;7.57;51.01;102118.41;5032142;28;45295;-76
2023/03/28 06:13:36;;;;;;;;;8.00;6.67;;;;;7.41;50.90;102104.38;5033096;28;47688;-75
2023/03/28 06:16:02;;;;;;;;;13.00;10.00;;;;;7.09;50.50;102041.94;5054178;28;45372;-74
2023/03/28 06:18:28;;;;;;;;;13.67;11.33;;;;;7.47;50.84;102119.91;5044151;28;45316;-74
2023/03/28 06:20:53;;;;;;;;;8.67;8.67;;;;;7.51;51.50;102129.34;5023547;28;45553;-76
2023/03/28 06:23:19;;;;;;;;;9.33;8.33;;;;;7.29;50.99;102078.66;5049256;28;45223;-73
2023/03/28 06:25:45;;;;;;;;;11.00;10.00;;;;;7.72;50.82;102139.59;5037129;28;45671;-73
2023/03/28 06:28:10;;;;;;;;;9.33;6.00;;;;;7.77;50.99;102141.03;5045909;28;45539;-71
2023/03/28 06:30:37;;;;;;;;;11.00;10.67;;;;;7.83;50.93;102137.19;5054461;28;45389;-70
2023/03/28 06:33:03;;;;;;;;;13.67;11.00;;;;;7.92;50.61;102145.41;5057436;28;46060;-72
2023/03/28 06:35:29;;;;;;;;;9.33;9.33;;;;;8.02;50.37;102137.78;5057445;28;45252;-71
2023/03/28 06:37:54;;;;;;;;;9.67;9.33;;;;;7.24;50.45;101993.44;5040068;28;45507;-70
2023/03/28 06:40:20;;;;;;;;;11.33;10.33;;;;;7.95;49.91;102099.34;5060012;28;45404;-72
2023/03/28 06:42:45;;;;;;;;;13.67;9.67;;;;;8.32;49.68;102145.63;5059785;28;46839;-71
2023/03/28 06:45:11;;;;;;;;;10.00;7.67;;;;;8.11;49.58;102107.22;5027308;28;45484;-71
2023/03/28 06:47:36;;;;;;;;;68.50;53.50;;;;;8.32;50.10;102150.91;5059826;28;45323;-73
2023/03/28 06:50:01;;;;;;;;;108.00;95.75;;;;;8.01;49.93;102091.06;5059964;28;45350;-71
2023/03/28 06:52:27;;;;;;;;;13.67;13.33;;;;;8.30;50.08;102138.72;5053037;28;45661;-71
2023/03/28 06:54:52;;;;;;;;;11.67;11.67;;;;;7.95;49.65;102064.94;5052275;28;45451;-72
2023/03/28 06:57:18;;;;;;;;;12.00;10.33;;;;;8.09;49.51;102053.47;5040067;28;46082;-73
2023/03/28 06:59:43;;;;;;;;;10.00;10.00;;;;;8.06;48.92;102057.19;5059040;28;45490;-73
2023/03/28 07:02:14;;;;;;;;;12.67;10.00;;;;;8.54;49.11;102126.59;5054593;28;45469;-74
2023/03/28 07:04:39;;;;;;;;;12.33;10.33;;;;;7.75;49.22;101984.09;5059424;28;45483;-73
2023/03/28 07:07:06;;;;;;;;;8.33;8.33;;;;;7.48;49.74;101960.19;5059091;28;49153;-72
2023/03/28 07:09:31;;;;;;;;;8.67;8.67;;;;;7.87;49.51;102014.25;5047861;28;45452;-70
2023/03/28 07:11:57;;;;;;;;;7.00;7.00;;;;;7.98;49.68;102048.84;5054053;28;51215;-71
2023/03/28 07:14:22;;;;;;;;;13.33;11.33;;;;;8.08;50.15;102081.78;5050860;28;45586;-72
2023/03/28 07:16:51;;;;;;;;;9.67;8.33;;;;;7.99;49.91;102071.72;5051423;28;45329;-72
2023/03/28 07:19:17;;;;;;;;;11.00;9.00;;;;;8.15;50.61;102092.81;5048010;28;45233;-73
2023/03/28 07:21:45;;;;;;;;;9.67;9.67;;;;;8.00;50.63;102061.97;5051148;28;46046;-71
2023/03/28 07:24:11;;;;;;;;;10.00;9.67;;;;;8.02;50.85;102079.50;5057963;28;45371;-73
2023/03/28 07:26:36;;;;;;;;;11.00;7.00;;;;;7.98;51.01;102080.63;5036846;28;45427;-72
2023/03/28 07:29:02;;;;;;;;;13.00;11.33;;;;;8.01;50.96;102104.28;5053919;28;45518;-72
2023/03/28 07:31:27;;;;;;;;;13.33;10.67;;;;;7.19;50.56;101945.22;5062853;28;46853;-73
2023/03/28 07:33:56;;;;;;;;;8.00;7.67;;;;;7.00;50.99;101925.16;5044084;28;45952;-72
2023/03/28 07:36:23;;;;;;;;;13.00;13.00;;;;;8.18;50.42;102113.81;5049194;28;45190;-72
2023/03/28 07:38:48;;;;;;;;;11.67;11.67;;;;;8.23;50.52;102111.75;5058765;28;45345;-73
2023/03/28 07:41:14;;;;;;;;;12.67;11.67;;;;;8.24;50.16;102087.81;5022271;28;46276;-71
2023/03/28 07:43:39;;;;;;;;;12.00;12.00;;;;;8.61;49.80;102112.03;5077773;28;45391;-72
2023/03/28 07:46:07;;;;;;;;;14.33;12.33;;;;;8.83;49.25;102109.69;5051857;28;45982;-73
2023/03/28 07:48:35;;;;;;;;;13.00;12.33;;;;;9.15;48.65;102112.03;5062126;28;45463;-72
2023/03/28 07:51:01;;;;;;;;;18.00;13.33;;;;;9.45;47.98;102107.34;5061345;28;45550;-74
2023/03/28 07:53:27;;;;;;;;;10.67;10.00;;;;;9.68;47.58;102100.47;5060223;28;45428;-72
2023/03/28 07:55:53;;;;;;;;;11.33;9.33;;;;;9.93;46.58;102115.56;5040238;28;45355;-71
2023/03/28 07:58:19;;;;;;;;;17.00;12.67;;;;;9.86;46.19;102076.25;5058375;28;45376;-75
2023/03/28 08:00:44;;;;;;;;;11.00;10.00;;;;;9.73;45.66;102044.38;5059656;28;46304;-78
2023/03/28 08:03:14;;;;;;;;;16.33;14.00;;;;;10.36;45.38;102120.56;5075656;28;45428;-72
2023/03/28 08:05:42;;;;;;;;;14.67;12.33;;;;;10.28;45.52;102080.38;5061324;28;45373;-74
2023/03/28 08:08:07;;;;;;;;;10.00;10.00;;;;;10.49;44.48;102092.13;5064372;28;45542;-72
2023/03/28 08:10:33;;;;;;;;;9.67;9.67;;;;;10.80;44.04;102069.47;5057819;28;45636;-72
2023/03/28 08:12:58;;;;;;;;;14.00;10.00;;;;;11.36;42.75;102101.66;5057851;28;45357;-75
2023/03/28 08:15:24;;;;;;;;;12.00;11.00;;;;;11.69;42.81;102084.91;5058401;28;45322;-72
2023/03/28 08:17:49;;;;;;;;;8.67;8.00;;;;;12.18;41.61;102113.09;5059070;28;45411;-73
2023/03/28 08:20:15;;;;;;;;;9.00;9.00;;;;;11.96;40.65;102055.28;5059720;28;45597;-74
2023/03/28 08:22:40;;;;;;;;;13.33;11.33;;;;;12.55;40.75;102110.16;5060621;28;45321;-74
2023/03/28 08:25:06;;;;;;;;;12.67;12.00;;;;;12.84;39.96;102105.16;5041452;28;45531;-75
2023/03/28 08:27:32;;;;;;;;;16.00;16.00;;;;;12.44;39.57;102029.19;5053318;28;45535;-73
2023/03/28 08:29:58;;;;;;;;;11.00;11.00;;;;;12.83;39.20;102096.28;5058931;28;45509;-73
2023/03/28 08:32:23;;;;;;;;;12.67;12.67;;;;;12.80;38.92;102099.19;5061540;28;45378;-74
2023/03/28 08:34:49;;;;;;;;;15.00;15.00;;;;;12.80;39.41;102104.53;5058944;28;45473;-73
2023/03/28 08:37:14;;;;;;;;;9.33;9.00;;;;;12.19;39.28;102000.13;5058977;28;45357;-72
2023/03/28 08:39:41;;;;;;;;;12.00;10.33;;;;;12.70;38.62;102075.09;5039450;28;47361;-72
2023/03/28 08:42:25;;;;;;;;;11.00;11.00;;;;;12.60;38.50;102060.78;5060952;28;45407;-73
2023/03/28 08:44:57;;;;;;;;;11.67;10.33;;;;;12.90;38.51;102110.81;5060603;28;45314;-72
2023/03/28 08:47:29;;;;;;;;;11.00;9.33;;;;;12.29;37.45;102029.59;5067832;28;45301;-74
2023/03/28 08:50:05;;;;;;;;;9.67;8.67;;;;;11.70;37.59;101961.41;5076872;28;47894;-73
2023/03/28 08:52:31;;;;;;;;;8.00;8.00;;;;;12.42;38.29;102105.81;5063838;28;45423;-73
2023/03/28 08:55:01;;;;;;;;;9.00;8.33;;;;;12.17;38.16;102063.41;5057710;28;45344;-73
2023/03/28 08:57:32;;;;;;;;;4.67;4.67;;;;;11.96;37.87;102062.44;5060192;28;45469;-74
2023/03/28 09:00:21;;;;;;;;;7.00;6.00;;;;;11.88;37.92;102069.22;5057603;28;46183;-74
2023/03/28 09:02:47;;;;;;;;;8.00;6.33;;;;;11.22;38.34;101956.28;5065630;28;45479;-75
2023/03/28 09:05:15;;;;;;;;;7.00;7.00;;;;;11.51;37.58;101995.78;5047379;28;45463;-73
2023/03/28 09:08:22;;;;;;;;;8.67;8.00;;;;;12.12;37.92;102084.25;5048588;28;45642;-73
2023/03/28 09:11:16;;;;;;;;;8.00;8.00;;;;;12.19;37.46;102083.63;4958071;28;47152;-73
2023/03/28 09:14:04;;;;;;;;;9.00;7.67;;;;;11.42;38.10;101921.94;4979295;28;45548;-73
2023/03/28 09:16:38;;;;;;;;;9.00;8.00;;;;;11.04;37.47;101858.38;5028965;28;45497;-73
2023/03/28 09:19:15;;;;;;;;;6.00;6.00;;;;;12.36;37.12;102084.09;5074781;28;45427;-73
2023/03/28 09:21:54;;;;;;;;;4.00;4.00;;;;;12.32;37.16;102035.50;5073522;28;46337;-73
2023/03/28 09:25:00;;;;;;;;;12.00;9.67;;;;;12.43;37.03;101999.97;5036259;28;45318;-72
2023/03/28 09:27:34;;;;;;;;;8.00;6.00;;;;;13.15;36.48;102066.91;5046819;28;45566;-72
2023/03/28 09:30:32;;;;;;;;;6.67;5.67;;;;;13.38;35.90;102067.66;5062562;28;45424;-75
2023/03/28 09:33:02;;;;;;;;;5.33;5.33;;;;;13.44;35.04;102061.84;5056297;28;45325;-72
2023/03/28 09:35:29;;;;;;;;;5.00;5.00;;;;;13.32;35.17;102066.38;5038826;28;45944;-73
2023/03/28 09:38:03;;;;;;;;;6.00;6.00;;;;;13.23;35.36;102064.50;5061897;28;45407;-72
2023/03/28 09:40:31;;;;;;;;;4.00;4.00;;;;;12.61;35.12;101944.25;5059143;28;45500;-74
2023/03/28 09:43:06;;;;;;;;;8.00;6.33;;;;;13.08;35.60;102045.22;5074953;28;46352;-73
2023/03/28 09:45:35;;;;;;;;;5.67;5.00;;;;;13.06;35.84;102041.84;5070878;28;45439;-74
2023/03/28 09:48:04;;;;;;;;;6.33;6.33;;;;;12.97;35.90;102026.56;5054061;28;45351;-74
2023/03/28 09:50:29;;;;;;;;;8.67;4.33;;;;;12.75;35.62;101999.97;5038366;28;45560;-73
2023/03/28 09:52:56;;;;;;;;;6.67;4.00;;;;;13.07;35.85;102027.50;5063171;28;46244;-74
2023/03/28 09:55:31;;;;;;;;;7.67;6.67;;;;;13.05;35.19;101997.44;5076950;28;45393;-72
2023/03/28 09:58:08;;;;;;;;;5.00;5.00;;;;;13.15;35.05;101992.16;5064934;28;45543;-75
2023/03/28 10:00:36;;;;;;;;;4.33;4.33;;;;;13.08;34.15;101983.81;5074067;28;45697;-73
2023/03/28 10:03:02;;;;;;;;;17.67;16.33;;;;;13.27;33.94;101958.25;5035379;28;47539;-74
2023/03/28 10:05:33;;;;;;;;;5.00;3.67;;;;;13.59;33.48;102006.22;5054779;28;45298;-74
2023/03/28 10:08:03;;;;;;;;;2.00;2.00;;;;;13.10;33.40;101941.81;5056623;28;45598;-73
2023/03/28 10:10:28;;;;;;;;;3.00;2.33;;;;;13.24;32.88;101946.00;5071492;28;45342;-73
2023/03/28 10:13:02;;;;;;;;;3.00;2.67;;;;;13.38;33.01;101979.53;5057584;28;46551;-76
2023/03/28 10:15:35;;;;;;;;;3.33;2.00;;;;;13.60;33.22;101995.38;5042314;28;46481;-74
2023/03/28 10:18:03;;;;;;;;;4.33;4.33;;;;;13.69;33.43;102002.63;5064268;28;45556;-73
2023/03/28 10:20:35;;;;;;;;;7.00;4.33;;;;;13.84;33.03;101988.91;5059836;28;45325;-73
2023/03/28 10:23:02;;;;;;;;;3.67;2.67;;;;;13.76;33.50;101948.63;5061730;28;46032;-72
2023/03/28 10:25:43;;;;;;;;;5.67;4.33;;;;;14.02;33.39;101987.28;5042035;28;46349;-72
2023/03/28 10:28:16;;;;;;;;;6.67;4.33;;;;;14.05;33.13;102004.88;5049302;28;45325;-73
2023/03/28 10:30:42;;;;;;;;;7.67;4.67;;;;;13.83;32.98;101955.13;5061203;28;45676;-72
2023/03/28 10:33:20;;;;;;;;;4.33;3.00;;;;;13.93;33.04;101991.59;5065899;28;45831;-73
2023/03/28 10:35:56;;;;;;;;;5.67;5.67;;;;;13.93;33.19;101993.44;5021543;28;45452;-72
2023/03/28 10:38:24;;;;;;;;;7.67;4.00;;;;;14.04;33.02;101990.66;5033174;28;45381;-72
2023/03/28 10:40:57;;;;;;;;;8.33;5.67;;;;;13.90;32.87;101988.34;5059584;28;45498;-72
2023/03/28 10:43:31;;;;;;;;;7.67;6.67;;;;;13.35;33.67;101903.16;5069992;28;45553;-73
2023/03/28 10:46:00;;;;;;;;;7.33;3.67;;;;;13.51;33.57;101902.69;5079727;28;45695;-72
2023/03/28 10:48:29;;;;;;;;;2.67;2.67;;;;;14.06;33.24;101983.34;5072223;28;45478;-73
2023/03/28 10:50:57;;;;;;;;;4.00;4.00;;;;;13.83;33.13;101955.13;5059938;28;45497;-73
2023/03/28 10:53:40;;;;;;;;;2.67;2.67;;;;;13.90;33.50;101966.97;5058320;28;46939;-73
2023/03/28 10:56:23;;;;;;;;;4.67;4.67;;;;;13.65;33.78;101929.03;5059190;28;45345;-73
2023/03/28 10:59:10;;;;;;;;;3.67;3.67;;;;;13.79;33.58;101954.53;5055643;28;45542;-72
2023/03/28 11:02:26;;;;;;;;;5.33;4.33;;;;;13.83;33.61;101957.81;5079557;28;45633;-73
2023/03/28 11:05:03;;;;;;;;;6.67;4.67;;;;;13.44;34.00;101909.56;5047426;28;45536;-73
2023/03/28 11:07:46;;;;;;;;;6.33;4.00;;;;;13.17;33.96;101890.53;5057537;28;45439;-72
2023/03/28 11:10:36;;;;;;;;;4.67;3.67;;;;;13.63;34.19;101944.38;5027980;28;45512;-71
2023/03/28 11:13:45;;;;;;;;;5.67;5.00;;;;;13.51;34.85;101944.59;5027568;28;45570;-72
2023/03/28 11:16:26;;;;;;;;;5.00;4.00;;;;;13.47;34.59;101924.47;5033891;28;48407;-71
2023/03/28 11:19:27;;;;;;;;;3.67;3.67;;;;;13.62;34.59;101933.81;5064988;28;45416;-74
2023/03/28 11:22:01;;;;;;;;;3.00;3.00;;;;;13.70;34.63;101932.16;4958773;28;45384;-73
2023/03/28 11:24:43;;;;;;;;;5.67;5.67;;;;;13.51;34.40;101902.69;5030941;28;45470;-72
2023/03/28 11:27:21;;;;;;;;;3.67;3.00;;;;;13.66;34.30;101921.88;5053400;28;46530;-71
2023/03/28 11:29:55;;;;;;;;;5.33;3.67;;;;;13.47;34.70;101879.06;5052250;28;46340;-73
2023/03/28 11:32:34;;;;;;;;;3.67;3.67;;;;;13.66;34.78;101916.53;5059309;28;45582;-72
2023/03/28 11:35:13;;;;;;;;;4.33;3.67;;;;;13.88;34.68;101923.50;5065278;28;45491;-71
2023/03/28 11:38:11;;;;;;;;;4.67;4.67;;;;;13.88;34.57;101902.94;5056824;28;45546;-73
2023/03/28 11:40:51;;;;;;;;;7.00;4.33;;;;;13.03;34.39;101767.13;5038823;28;45251;-73
2023/03/28 11:43:34;;;;;;;;;6.00;5.00;;;;;13.87;34.79;101900.41;5046780;28;45347;-73
2023/03/28 11:46:28;;;;;;;;;4.33;4.33;;;;;13.72;34.68;101872.38;5051801;28;45527;-71